Festina, Iowa
Current Conditions -  °F | °C
As of 9:35 PM on Saturday 22 Nov 2014 (Local Time) from KDEH Reporting Station
Haze Haze  
Wind Chill: 50°   Ceiling: 300
Heat Index: 50°   Visibility: 1.7mi
Dew Point: 50°   Wind: 13mph
Humidity: 100%   Direction: 180°S
Pressure: 29.65"   Gusts: 23mph
Location:  43.1257°N, 91.9025°W
Report Text: KDEH 230335Z AUTO 18011G20KT 1 3/4SM BR OVC003 10/10 A2965 RMK AO2
Loading
Personal Weather Stations






























Interactive Weather Map New forecast layout! Learn more

10-Day Weather Forecast

Advertisements
Track Severe Weather on mobile